createdAt,value
2019-05-03T00:02:12.185Z,13.40
2019-05-03T00:08:14.362Z,13.40
2019-05-03T00:14:16.848Z,13.30
2019-05-03T00:20:19.113Z,13.20
2019-05-03T00:26:22.591Z,13.20
2019-05-03T00:32:26.887Z,13.20
2019-05-03T00:38:29.213Z,13.20
2019-05-03T00:44:31.780Z,13.00
2019-05-03T00:50:34.242Z,13.00
2019-05-03T00:56:36.475Z,12.90
2019-05-03T01:02:38.793Z,12.90
2019-05-03T01:08:41.934Z,12.80
2019-05-03T01:14:46.079Z,12.80
2019-05-03T01:20:48.302Z,12.70
2019-05-03T01:26:52.431Z,12.60
2019-05-03T01:32:54.753Z,12.50
2019-05-03T01:38:57.190Z,12.50
2019-05-03T01:45:01.537Z,12.60
2019-05-03T01:51:05.370Z,12.60
2019-05-03T01:57:07.599Z,12.50
2019-05-03T02:03:14.588Z,12.40
2019-05-03T02:09:16.767Z,12.40
2019-05-03T02:15:19.200Z,12.20
2019-05-03T02:21:21.705Z,12.10
2019-05-03T02:27:24.062Z,12.00
2019-05-03T02:33:26.394Z,11.90
2019-05-03T02:39:29.789Z,11.80
2019-05-03T02:45:35.179Z,11.60
2019-05-03T02:51:37.370Z,11.50
2019-05-03T02:57:39.783Z,11.50
2019-05-03T03:03:42.121Z,11.30
2019-05-03T03:09:45.530Z,11.20
2019-05-03T03:15:50.233Z,11.20
2019-05-03T03:21:56.279Z,11.20
2019-05-03T03:28:00.852Z,11.10
2019-05-03T03:34:08.830Z,11.10
2019-05-03T03:40:12.205Z,11.10
2019-05-03T03:46:15.872Z,11.00
2019-05-03T03:52:19.921Z,11.00
2019-05-03T03:58:26.736Z,11.10
2019-05-03T04:04:28.536Z,11.10
2019-05-03T04:10:31.049Z,11.00
2019-05-03T04:16:38.252Z,11.00
2019-05-03T04:22:40.757Z,10.90
2019-05-03T04:28:45.396Z,10.90
2019-05-03T04:34:47.271Z,10.90
2019-05-03T04:40:50.814Z,10.80
2019-05-03T04:46:55.994Z,10.90
2019-05-03T04:52:57.333Z,10.80
2019-05-03T04:58:59.591Z,10.70
2019-05-03T05:05:02.112Z,10.80
2019-05-03T05:11:10.030Z,10.90
2019-05-03T05:17:12.214Z,10.80
2019-05-03T05:23:14.890Z,10.90
2019-05-03T05:29:19.253Z,10.90
2019-05-03T05:35:21.620Z,11.10
2019-05-03T05:41:24.542Z,11.10
2019-05-03T05:47:40.658Z,11.20
2019-05-03T05:53:44.783Z,11.20
2019-05-03T05:59:49.017Z,11.10
2019-05-03T06:05:51.785Z,11.20
2019-05-03T06:11:56.070Z,11.30
2019-05-03T06:18:00.354Z,11.40
2019-05-03T06:24:07.727Z,11.40
2019-05-03T06:30:28.955Z,11.40
2019-05-03T06:36:31.424Z,11.50
2019-05-03T06:42:35.521Z,11.60
2019-05-03T06:48:37.928Z,11.70
2019-05-03T06:54:40.335Z,11.60
2019-05-03T07:00:55.241Z,11.70
2019-05-03T07:07:15.400Z,11.70
2019-05-03T07:13:17.413Z,11.70
2019-05-03T07:19:19.656Z,11.70
2019-05-03T07:25:22.394Z,11.80
2019-05-03T07:31:25.533Z,11.80
2019-05-03T07:37:28.528Z,11.80
2019-05-03T07:43:31.228Z,11.80
2019-05-03T07:49:35.491Z,11.90
2019-05-03T07:55:56.580Z,12.00
2019-05-03T08:01:59.256Z,12.00
2019-05-03T08:08:01.730Z,12.10
2019-05-03T08:14:05.676Z,12.30
2019-05-03T08:20:08.176Z,12.50
2019-05-03T08:26:10.497Z,12.80
2019-05-03T08:32:35.141Z,12.80
2019-05-03T08:38:37.075Z,13.00
2019-05-03T08:44:39.564Z,13.40
2019-05-03T08:50:41.899Z,14.30
2019-05-03T08:56:45.154Z,14.20
2019-05-03T09:02:47.640Z,14.10
2019-05-03T09:08:49.905Z,14.10
2019-05-03T09:14:54.293Z,14.20
2019-05-03T09:20:56.615Z,14.40
2019-05-03T09:26:59.021Z,14.50
2019-05-03T09:33:01.343Z,14.60
2019-05-03T09:39:05.403Z,14.40
2019-05-03T09:45:08.493Z,14.50
2019-05-03T09:51:10.827Z,14.70
2019-05-03T09:57:15.252Z,14.70
2019-05-03T10:03:17.800Z,14.60
2019-05-03T10:09:20.778Z,14.70
2019-05-03T10:15:41.644Z,15.20
2019-05-03T10:21:48.340Z,15.70
2019-05-03T10:27:55.032Z,16.40
2019-05-03T10:33:59.471Z,17.10
2019-05-03T10:40:07.801Z,17.10
2019-05-03T10:46:09.241Z,17.10
2019-05-03T10:52:12.003Z,16.60
2019-05-03T10:58:18.968Z,16.90
2019-05-03T11:04:21.562Z,17.40
2019-05-03T11:10:25.259Z,17.30
2019-05-03T11:16:28.163Z,17.70
2019-05-03T11:22:30.509Z,18.10
2019-05-03T11:28:32.689Z,17.90
2019-05-03T11:34:36.862Z,17.80
2019-05-03T11:40:39.251Z,17.70
2019-05-03T11:46:44.534Z,17.50
2019-05-03T11:52:47.400Z,17.40
2019-05-03T11:58:49.994Z,17.00
2019-05-03T12:04:52.393Z,17.10
2019-05-03T12:10:59.763Z,17.10
2019-05-03T12:17:17.184Z,16.90
2019-05-03T12:23:06.398Z,16.60
2019-05-03T12:29:09.169Z,16.60
2019-05-03T12:35:11.438Z,16.70
2019-05-03T12:41:15.076Z,16.60
2019-05-03T12:47:17.571Z,16.20
2019-05-03T12:53:22.021Z,15.70
2019-05-03T12:59:30.958Z,15.40
2019-05-03T13:05:35.515Z,15.60
2019-05-03T13:11:51.787Z,15.90
2019-05-03T13:17:45.412Z,16.70
2019-05-03T13:23:47.883Z,17.10
2019-05-03T13:29:50.211Z,17.70
2019-05-03T13:35:52.581Z,17.70
2019-05-03T13:41:55.030Z,17.50
2019-05-03T13:48:04.821Z,17.60
2019-05-03T13:54:06.468Z,17.50
2019-05-03T14:00:09.190Z,17.30
2019-05-03T14:06:11.658Z,17.70
2019-05-03T14:12:15.464Z,17.50
2019-05-03T14:18:17.947Z,17.30
2019-05-03T14:24:20.244Z,17.20
2019-05-03T14:30:22.872Z,16.90
2019-05-03T14:36:25.274Z,17.40
2019-05-03T14:42:27.621Z,17.80
2019-05-03T14:48:30.018Z,17.80
2019-05-03T14:54:34.562Z,17.50
2019-05-03T15:00:45.429Z,17.30
2019-05-03T15:06:47.858Z,17.10
2019-05-03T15:12:50.354Z,16.90
2019-05-03T15:18:54.751Z,16.80
2019-05-03T15:24:57.343Z,16.90
2019-05-03T15:30:59.805Z,16.70
2019-05-03T15:37:02.135Z,16.60
2019-05-03T15:43:10.354Z,16.40
2019-05-03T15:49:16.366Z,16.20
2019-05-03T15:55:22.325Z,16.10
2019-05-03T16:01:25.089Z,16.00
2019-05-03T16:07:27.599Z,15.80
2019-05-03T16:13:30.062Z,15.60
2019-05-03T16:19:32.425Z,15.40
2019-05-03T16:25:35.622Z,15.20
2019-05-03T16:31:38.077Z,15.10
2019-05-03T16:37:41.219Z,15.00
2019-05-03T16:43:45.551Z,15.00
2019-05-03T16:49:47.879Z,14.80
2019-05-03T16:55:50.228Z,14.70
2019-05-03T17:01:52.746Z,14.60
2019-05-03T17:08:15.281Z,14.50
2019-05-03T17:14:17.773Z,14.50
2019-05-03T17:20:20.919Z,14.50
2019-05-03T17:26:24.872Z,14.50
2019-05-03T17:32:27.739Z,14.40
2019-05-03T17:38:30.130Z,14.20
2019-05-03T17:44:37.113Z,14.00
2019-05-03T17:50:39.609Z,13.90
2019-05-03T17:57:00.074Z,13.80
2019-05-03T18:03:04.701Z,13.60
2019-05-03T18:09:09.714Z,13.50
2019-05-03T18:15:12.133Z,13.30
2019-05-03T18:21:15.356Z,13.20
2019-05-03T18:27:17.695Z,13.10
2019-05-03T18:33:20.146Z,13.00
2019-05-03T18:39:22.550Z,13.00
2019-05-03T18:45:28.298Z,13.00
2019-05-03T18:51:30.636Z,13.00
2019-05-03T18:57:33.007Z,12.90
2019-05-03T19:03:35.847Z,12.80
2019-05-03T19:09:40.819Z,12.80
2019-05-03T19:15:43.715Z,12.80
2019-05-03T19:21:47.007Z,12.70
2019-05-03T19:27:50.072Z,12.70
2019-05-03T19:33:52.486Z,12.60
2019-05-03T19:39:55.382Z,12.50
2019-05-03T19:45:57.676Z,12.50
2019-05-03T19:52:00.128Z,12.50
2019-05-03T19:58:02.792Z,12.40
2019-05-03T20:04:10.102Z,12.30
2019-05-03T20:10:14.630Z,12.20
2019-05-03T20:16:17.040Z,12.10
2019-05-03T20:22:19.352Z,12.10
2019-05-03T20:28:21.723Z,12.20
2019-05-03T20:34:24.859Z,12.20
2019-05-03T20:40:27.479Z,12.10
2019-05-03T20:46:34.552Z,12.20
2019-05-03T20:52:37.798Z,12.20
2019-05-03T20:58:40.234Z,12.20
2019-05-03T21:04:42.885Z,12.20
2019-05-03T21:10:46.162Z,12.20
2019-05-03T21:16:50.992Z,12.20
2019-05-03T21:22:54.780Z,12.20
2019-05-03T21:28:57.150Z,12.20
2019-05-03T21:34:59.512Z,12.10
2019-05-03T21:41:02.406Z,12.20
2019-05-03T21:47:12.692Z,12.10
2019-05-03T21:53:15.731Z,12.00
2019-05-03T21:59:18.036Z,12.00
2019-05-03T22:05:20.837Z,12.00
2019-05-03T22:11:25.013Z,11.90
2019-05-03T22:24:35.636Z,11.80
2019-05-03T22:30:38.055Z,11.70
2019-05-03T22:36:41.516Z,11.60
2019-05-03T22:42:44.810Z,11.70
2019-05-03T22:48:47.212Z,11.80
2019-05-03T22:54:49.559Z,11.90
2019-05-03T23:00:51.859Z,11.90
2019-05-03T23:06:55.507Z,11.90
2019-05-03T23:12:57.998Z,11.80
2019-05-03T23:33:08.738Z,11.50
2019-05-03T23:39:10.967Z,11.50
2019-05-03T23:45:14.891Z,11.50
2019-05-03T23:51:35.080Z,11.50
2019-05-03T23:57:37.598Z,11.40
